createdAt,value
2017-09-27T00:01:12.382Z,62.00
2017-09-27T00:03:40.661Z,62.20
2017-09-27T00:06:09.388Z,62.10
2017-09-27T00:08:37.631Z,62.20
2017-09-27T00:11:05.903Z,61.90
2017-09-27T00:13:34.608Z,61.80
2017-09-27T00:16:02.882Z,61.90
2017-09-27T00:18:31.113Z,62.20
2017-09-27T00:21:00.197Z,61.90
2017-09-27T00:23:28.423Z,61.90
2017-09-27T00:25:56.694Z,62.30
2017-09-27T00:28:25.333Z,62.20
2017-09-27T00:30:53.655Z,62.10
2017-09-27T00:33:21.910Z,62.10
2017-09-27T00:35:51.892Z,61.90
2017-09-27T00:38:20.135Z,62.10
2017-09-27T00:40:48.383Z,62.70
2017-09-27T00:43:16.682Z,62.80
2017-09-27T00:45:45.908Z,62.70
2017-09-27T00:48:14.187Z,62.70
2017-09-27T00:50:43.236Z,62.80
2017-09-27T00:53:12.356Z,62.50
2017-09-27T00:55:40.728Z,62.90
2017-09-27T00:58:10.103Z,62.60
2017-09-27T01:00:38.400Z,62.80
2017-09-27T01:03:06.661Z,62.80
2017-09-27T01:05:34.982Z,63.00
2017-09-27T01:08:03.271Z,62.50
2017-09-27T01:10:31.582Z,62.80
2017-09-27T01:13:00.033Z,62.60
2017-09-27T01:15:28.255Z,62.70
2017-09-27T01:17:57.368Z,62.60
2017-09-27T01:20:26.716Z,62.70
2017-09-27T01:22:55.755Z,63.10
2017-09-27T01:25:24.020Z,62.80
2017-09-27T01:27:52.352Z,62.70
2017-09-27T01:30:20.644Z,62.70
2017-09-27T01:32:48.891Z,62.20
2017-09-27T01:35:17.223Z,62.30
2017-09-27T01:37:46.328Z,62.50
2017-09-27T01:40:14.607Z,62.60
2017-09-27T01:42:42.942Z,62.20
2017-09-27T01:45:11.984Z,62.50
2017-09-27T01:47:40.260Z,62.50
2017-09-27T01:50:08.731Z,62.00
2017-09-27T01:52:37.872Z,61.90
2017-09-27T01:55:06.128Z,62.10
2017-09-27T01:57:34.457Z,62.60
2017-09-27T02:00:03.484Z,62.40
2017-09-27T02:02:31.800Z,62.40
2017-09-27T02:05:01.488Z,62.40
2017-09-27T02:07:29.775Z,62.20
2017-09-27T02:09:58.066Z,62.50
2017-09-27T02:12:26.515Z,61.90
2017-09-27T02:14:54.786Z,61.50
2017-09-27T02:17:23.043Z,61.50
2017-09-27T02:19:51.399Z,61.90
2017-09-27T02:22:19.728Z,61.80
2017-09-27T02:24:49.069Z,62.00
2017-09-27T02:27:17.379Z,61.80
2017-09-27T02:29:46.645Z,61.60
2017-09-27T02:32:14.892Z,61.50
2017-09-27T02:34:43.315Z,61.60
2017-09-27T02:37:13.294Z,61.30
2017-09-27T02:39:42.500Z,61.40
2017-09-27T02:42:12.599Z,61.80
2017-09-27T02:44:40.859Z,62.20
2017-09-27T02:47:09.147Z,62.20
2017-09-27T02:49:38.397Z,62.40
2017-09-27T02:52:07.468Z,62.30
2017-09-27T02:54:35.721Z,62.40
2017-09-27T02:57:04.039Z,62.20
2017-09-27T02:59:33.186Z,62.00
2017-09-27T03:02:01.610Z,61.20
2017-09-27T03:04:29.872Z,61.40
2017-09-27T03:06:59.193Z,62.30
2017-09-27T03:09:27.479Z,61.80
2017-09-27T03:11:56.492Z,62.80
2017-09-27T03:14:25.652Z,62.50
2017-09-27T03:16:53.870Z,62.60
2017-09-27T03:19:22.160Z,62.70
2017-09-27T03:21:50.400Z,62.60
2017-09-27T03:24:19.696Z,62.70
2017-09-27T03:26:48.739Z,63.00
2017-09-27T03:29:16.991Z,62.70
2017-09-27T03:31:46.269Z,62.80
2017-09-27T03:34:14.628Z,62.70
2017-09-27T03:36:42.868Z,63.00
2017-09-27T03:39:11.168Z,62.70
2017-09-27T03:41:39.412Z,62.20
2017-09-27T03:44:07.704Z,62.60
2017-09-27T03:46:38.122Z,62.70
2017-09-27T03:49:06.768Z,62.70
2017-09-27T03:51:37.970Z,62.30
2017-09-27T03:54:06.272Z,62.50
2017-09-27T03:56:35.322Z,62.40
2017-09-27T03:59:03.639Z,62.40
2017-09-27T04:01:32.072Z,62.10
2017-09-27T04:04:00.323Z,61.90
2017-09-27T04:06:29.356Z,61.40
2017-09-27T04:08:57.597Z,61.70
2017-09-27T04:11:25.843Z,61.60
2017-09-27T04:13:54.105Z,61.40
2017-09-27T04:16:22.558Z,61.70
2017-09-27T04:18:50.988Z,61.60
2017-09-27T04:21:19.252Z,61.30
2017-09-27T04:23:47.536Z,61.30
2017-09-27T04:26:16.548Z,61.50
2017-09-27T04:28:44.843Z,61.50
2017-09-27T04:31:14.057Z,61.90
2017-09-27T04:33:42.294Z,61.90
2017-09-27T04:36:12.679Z,61.60
2017-09-27T04:38:41.063Z,61.60
2017-09-27T04:41:09.291Z,61.70
2017-09-27T04:43:37.544Z,61.20
2017-09-27T04:46:05.888Z,61.20
2017-09-27T04:48:34.132Z,61.10
2017-09-27T04:51:02.466Z,61.70
2017-09-27T04:53:30.692Z,62.10
2017-09-27T04:55:58.994Z,61.80
2017-09-27T04:58:27.235Z,61.30
2017-09-27T05:00:56.427Z,61.10
2017-09-27T05:03:24.677Z,60.30
2017-09-27T05:05:53.681Z,60.50
2017-09-27T05:08:23.882Z,60.80
2017-09-27T05:10:53.160Z,61.30
2017-09-27T05:13:21.436Z,61.50
2017-09-27T05:15:49.763Z,61.10
2017-09-27T05:18:18.087Z,61.00
2017-09-27T05:20:47.230Z,61.40
2017-09-27T05:23:17.229Z,61.40
2017-09-27T05:25:45.527Z,61.70
2017-09-27T05:28:13.786Z,61.80
2017-09-27T05:30:42.807Z,61.30
2017-09-27T05:33:11.123Z,61.10
2017-09-27T05:35:41.251Z,61.10
2017-09-27T05:38:09.646Z,61.20
2017-09-27T05:40:38.663Z,60.90
2017-09-27T05:43:07.048Z,61.00
2017-09-27T05:45:36.160Z,60.80
2017-09-27T05:48:04.432Z,60.70
2017-09-27T05:50:32.753Z,60.70
2017-09-27T05:53:00.979Z,60.70
2017-09-27T05:55:29.239Z,60.80
2017-09-27T05:57:57.660Z,60.70
2017-09-27T06:00:25.912Z,61.00
2017-09-27T06:02:54.166Z,60.80
2017-09-27T06:05:23.225Z,60.90
2017-09-27T06:07:51.509Z,60.90
2017-09-27T06:10:20.880Z,61.00
2017-09-27T06:12:49.172Z,61.70
2017-09-27T06:15:19.081Z,61.50
2017-09-27T06:17:47.364Z,61.30
2017-09-27T06:20:16.637Z,61.60
2017-09-27T06:22:44.900Z,62.10
2017-09-27T06:25:13.172Z,62.10
2017-09-27T06:27:42.208Z,62.40
2017-09-27T06:30:10.515Z,62.10
2017-09-27T06:32:39.644Z,62.40
2017-09-27T06:35:07.893Z,62.60
2017-09-27T06:37:36.162Z,62.80
2017-09-27T06:40:04.428Z,63.10
2017-09-27T06:42:32.818Z,63.00
2017-09-27T06:45:01.066Z,63.30
2017-09-27T06:47:29.489Z,63.10
2017-09-27T06:49:57.812Z,63.50
2017-09-27T06:52:26.076Z,63.50
2017-09-27T06:54:54.357Z,63.30
2017-09-27T06:57:22.623Z,63.20
2017-09-27T06:59:51.020Z,63.20
2017-09-27T07:02:20.308Z,63.60
2017-09-27T07:04:48.625Z,63.30
2017-09-27T07:07:17.697Z,63.30
2017-09-27T07:09:46.123Z,63.60
2017-09-27T07:12:15.265Z,63.70
2017-09-27T07:14:43.563Z,63.90
2017-09-27T07:17:11.809Z,63.90
2017-09-27T07:19:40.918Z,64.10
2017-09-27T07:22:09.211Z,64.30
2017-09-27T07:24:38.355Z,64.30
2017-09-27T07:27:06.622Z,64.20
2017-09-27T07:29:35.722Z,64.50
2017-09-27T07:32:05.617Z,64.70
2017-09-27T07:34:33.865Z,64.30
2017-09-27T07:37:02.201Z,64.70
2017-09-27T07:39:30.434Z,64.60
2017-09-27T07:41:58.829Z,64.70
2017-09-27T07:44:27.059Z,64.70
2017-09-27T07:46:55.333Z,64.80
2017-09-27T07:49:23.840Z,65.00
2017-09-27T07:51:52.092Z,64.80
2017-09-27T07:54:20.361Z,65.10
2017-09-27T07:56:48.673Z,64.80
2017-09-27T07:59:17.051Z,65.00
2017-09-27T08:01:45.317Z,65.00
2017-09-27T08:04:14.224Z,65.50
2017-09-27T08:06:42.592Z,65.30
2017-09-27T08:09:10.844Z,65.40
2017-09-27T08:11:39.158Z,65.10
2017-09-27T08:14:07.415Z,65.10
2017-09-27T08:16:35.665Z,65.50
2017-09-27T08:19:04.018Z,65.70
2017-09-27T08:21:32.293Z,65.80
2017-09-27T08:24:00.548Z,66.10
2017-09-27T08:26:28.865Z,66.10
2017-09-27T08:28:57.892Z,66.10
2017-09-27T08:31:28.163Z,66.20
2017-09-27T08:33:56.542Z,66.30
2017-09-27T08:36:26.049Z,66.40
2017-09-27T08:38:54.345Z,66.70
2017-09-27T08:41:23.379Z,67.00
2017-09-27T08:43:51.663Z,67.00
2017-09-27T08:46:19.987Z,66.80
2017-09-27T08:48:49.000Z,66.80
2017-09-27T08:51:17.395Z,66.90
2017-09-27T08:53:46.607Z,66.80
2017-09-27T08:56:15.821Z,66.90
2017-09-27T08:58:44.096Z,66.70
2017-09-27T09:01:12.936Z,67.20
2017-09-27T09:03:42.502Z,67.30
2017-09-27T09:06:11.766Z,67.20
2017-09-27T09:08:40.022Z,67.00
2017-09-27T09:11:08.320Z,67.00
2017-09-27T09:13:36.614Z,67.00
2017-09-27T09:16:05.625Z,67.50
2017-09-27T09:18:34.286Z,67.50
2017-09-27T09:21:02.908Z,67.30
2017-09-27T09:23:33.805Z,67.30
2017-09-27T09:26:02.854Z,67.70
2017-09-27T09:28:31.988Z,67.30
2017-09-27T09:31:00.572Z,67.40
2017-09-27T09:33:29.608Z,67.70
2017-09-27T09:35:57.881Z,67.60
2017-09-27T09:38:26.450Z,67.70
2017-09-27T09:40:54.767Z,67.50
2017-09-27T09:43:23.055Z,67.50
2017-09-27T09:45:51.333Z,67.40
2017-09-27T09:48:19.612Z,67.20
2017-09-27T09:50:48.700Z,67.20
2017-09-27T09:53:17.061Z,67.00
2017-09-27T09:55:45.518Z,66.60
2017-09-27T09:58:14.090Z,65.80
2017-09-27T10:00:42.644Z,65.90
2017-09-27T10:03:11.078Z,66.20
2017-09-27T10:05:39.388Z,66.10
2017-09-27T10:08:08.966Z,66.20
2017-09-27T10:10:38.266Z,66.10
2017-09-27T10:13:07.636Z,65.40
2017-09-27T10:15:36.843Z,66.00
2017-09-27T10:18:06.022Z,65.80
2017-09-27T10:20:35.229Z,65.50
2017-09-27T10:23:04.518Z,64.90
2017-09-27T10:25:33.135Z,64.90
2017-09-27T10:28:02.635Z,64.80
2017-09-27T10:30:31.095Z,63.90
2017-09-27T10:32:59.589Z,64.20
2017-09-27T10:35:29.088Z,63.60
2017-09-27T10:37:57.411Z,64.00
2017-09-27T10:40:26.656Z,63.80
2017-09-27T10:42:55.032Z,62.90
2017-09-27T10:45:23.541Z,62.20
2017-09-27T10:47:52.189Z,62.20
2017-09-27T10:50:21.893Z,62.00
2017-09-27T10:52:50.487Z,62.00
2017-09-27T10:55:20.038Z,61.80
2017-09-27T10:57:49.323Z,61.20
2017-09-27T11:00:17.850Z,61.40
2017-09-27T11:02:46.294Z,60.90
2017-09-27T11:05:15.901Z,60.50
2017-09-27T11:07:44.207Z,60.10
2017-09-27T11:10:12.938Z,60.00
2017-09-27T11:12:42.337Z,59.20
2017-09-27T11:15:10.741Z,59.00
2017-09-27T11:17:40.224Z,58.70
2017-09-27T11:20:08.844Z,59.00
2017-09-27T11:22:37.300Z,58.80
2017-09-27T11:25:05.886Z,58.40
2017-09-27T11:27:35.108Z,58.20
2017-09-27T11:30:04.358Z,59.10
2017-09-27T11:32:33.591Z,59.00
2017-09-27T11:35:02.052Z,58.60
2017-09-27T11:37:30.504Z,58.70
2017-09-27T11:39:58.783Z,59.30
2017-09-27T11:42:27.956Z,59.20
2017-09-27T11:44:56.354Z,59.80
2017-09-27T11:47:25.664Z,60.10
2017-09-27T11:49:54.389Z,60.50
2017-09-27T11:52:22.740Z,59.50
2017-09-27T11:54:51.168Z,59.70
2017-09-27T11:57:20.501Z,58.30
2017-09-27T11:59:49.831Z,58.30
2017-09-27T12:02:18.294Z,57.20
2017-09-27T12:04:47.632Z,56.60
2017-09-27T12:07:17.051Z,57.10
2017-09-27T12:09:46.592Z,56.80
2017-09-27T12:12:15.004Z,57.10
2017-09-27T12:14:43.377Z,57.10
2017-09-27T12:17:11.703Z,57.20
2017-09-27T12:19:40.123Z,57.10
2017-09-27T12:22:09.368Z,57.10
2017-09-27T12:24:38.763Z,57.00
2017-09-27T12:27:07.288Z,56.40
2017-09-27T12:29:35.972Z,55.70
2017-09-27T12:32:05.537Z,55.60
2017-09-27T12:34:34.650Z,56.10
2017-09-27T12:37:03.830Z,56.10
2017-09-27T12:39:34.105Z,56.20
2017-09-27T12:42:02.504Z,55.70
2017-09-27T12:44:31.746Z,55.70
2017-09-27T12:47:00.116Z,55.70
2017-09-27T12:49:28.687Z,55.10
2017-09-27T12:51:58.125Z,55.00
2017-09-27T12:54:26.406Z,55.40
2017-09-27T12:56:54.704Z,55.40
2017-09-27T12:59:23.073Z,54.90
2017-09-27T13:01:52.421Z,54.60
2017-09-27T13:04:20.880Z,55.20
2017-09-27T13:06:49.308Z,54.80
2017-09-27T13:09:19.440Z,54.70
2017-09-27T13:11:47.719Z,54.50
2017-09-27T13:14:16.741Z,54.20
2017-09-27T13:16:45.747Z,54.10
2017-09-27T13:19:17.833Z,54.70
2017-09-27T13:21:47.006Z,54.90
2017-09-27T13:24:15.263Z,54.90
2017-09-27T13:26:44.365Z,54.40
2017-09-27T13:29:12.725Z,55.20
2017-09-27T13:31:41.013Z,55.70
2017-09-27T13:34:10.138Z,55.30
2017-09-27T13:36:38.449Z,55.50
2017-09-27T13:39:07.621Z,54.20
2017-09-27T13:41:35.888Z,53.20
2017-09-27T13:44:04.228Z,53.20
2017-09-27T13:46:32.645Z,53.10
2017-09-27T13:49:00.883Z,52.80
2017-09-27T13:51:29.212Z,53.10
2017-09-27T13:53:58.241Z,51.90
2017-09-27T13:56:27.435Z,51.60
2017-09-27T13:58:56.788Z,51.00
2017-09-27T14:01:25.078Z,50.90
2017-09-27T14:03:53.336Z,51.80
2017-09-27T14:06:21.755Z,52.70
2017-09-27T14:08:50.805Z,53.20
2017-09-27T14:11:20.094Z,53.20
2017-09-27T14:13:48.529Z,53.30
2017-09-27T14:16:18.449Z,53.80
2017-09-27T14:18:47.589Z,51.80
2017-09-27T14:21:16.773Z,51.70
2017-09-27T14:23:45.862Z,52.30
2017-09-27T14:26:14.253Z,52.30
2017-09-27T14:28:43.270Z,50.70
2017-09-27T14:31:11.567Z,50.50
2017-09-27T14:33:39.879Z,50.10
2017-09-27T14:36:08.165Z,51.50
2017-09-27T14:38:37.238Z,53.30
2017-09-27T14:41:05.532Z,53.30
2017-09-27T14:43:34.738Z,53.00
2017-09-27T14:46:03.760Z,52.40
2017-09-27T14:48:32.061Z,52.30
2017-09-27T14:51:00.385Z,52.60
2017-09-27T14:53:29.553Z,53.00
2017-09-27T14:55:59.777Z,52.40
2017-09-27T14:58:28.065Z,52.50
2017-09-27T15:00:56.741Z,52.30
2017-09-27T15:03:25.793Z,52.40
2017-09-27T15:05:54.084Z,52.30
2017-09-27T15:08:22.442Z,52.00
2017-09-27T15:10:50.719Z,51.60
2017-09-27T15:13:19.026Z,51.00
2017-09-27T15:15:47.528Z,50.80
2017-09-27T15:18:16.751Z,52.00
2017-09-27T15:20:45.092Z,53.10
2017-09-27T15:23:13.453Z,53.40
2017-09-27T15:25:42.162Z,53.30
2017-09-27T15:28:11.980Z,53.20
2017-09-27T15:30:41.747Z,53.20
2017-09-27T15:33:10.088Z,53.40
2017-09-27T15:35:39.186Z,54.10
2017-09-27T15:38:08.212Z,54.10
2017-09-27T15:40:36.527Z,54.10
2017-09-27T15:43:04.931Z,53.90
2017-09-27T15:45:33.991Z,54.10
2017-09-27T15:48:02.418Z,54.10
2017-09-27T15:50:30.675Z,54.30
2017-09-27T15:52:59.793Z,54.20
2017-09-27T15:55:29.985Z,54.10
2017-09-27T15:57:59.798Z,54.00
2017-09-27T16:00:28.111Z,53.70
2017-09-27T16:02:56.419Z,53.40
2017-09-27T16:05:25.400Z,53.30
2017-09-27T16:07:54.525Z,53.90
2017-09-27T16:10:23.599Z,54.20
2017-09-27T16:12:51.991Z,54.00
2017-09-27T16:15:20.301Z,54.40
2017-09-27T16:17:49.496Z,54.60
2017-09-27T16:20:17.796Z,54.70
2017-09-27T16:22:46.079Z,54.70
2017-09-27T16:25:14.438Z,54.50
2017-09-27T16:27:42.817Z,54.90
2017-09-27T16:30:11.101Z,54.70
2017-09-27T16:32:39.425Z,54.90
2017-09-27T16:35:07.693Z,55.10
2017-09-27T16:37:36.033Z,55.20
2017-09-27T16:40:05.229Z,55.40
2017-09-27T16:42:34.322Z,55.10
2017-09-27T16:45:02.761Z,55.50
2017-09-27T16:47:31.060Z,55.60
2017-09-27T16:50:00.133Z,56.00
2017-09-27T16:52:28.474Z,56.20
2017-09-27T16:54:56.798Z,56.20
2017-09-27T16:57:25.936Z,56.40
2017-09-27T16:59:58.536Z,56.60
2017-09-27T17:02:26.991Z,56.70
2017-09-27T17:04:56.204Z,56.40
2017-09-27T17:07:24.508Z,57.00
2017-09-27T17:09:52.747Z,56.40
2017-09-27T17:12:21.978Z,56.40
2017-09-27T17:14:51.219Z,56.40
2017-09-27T17:17:20.302Z,56.40
2017-09-27T17:19:48.582Z,56.40
2017-09-27T17:22:17.663Z,56.40
2017-09-27T17:24:46.404Z,56.20
2017-09-27T17:27:15.698Z,56.30
2017-09-27T17:29:44.545Z,56.20
2017-09-27T17:32:14.157Z,56.40
2017-09-27T17:34:42.986Z,56.00
2017-09-27T17:37:12.468Z,56.00
2017-09-27T17:39:41.177Z,56.30
2017-09-27T17:42:09.796Z,56.20
2017-09-27T17:44:38.167Z,56.20
2017-09-27T17:47:07.767Z,56.30
2017-09-27T17:49:37.929Z,56.60
2017-09-27T17:52:10.687Z,56.70
2017-09-27T17:54:40.232Z,56.70
2017-09-27T17:57:08.642Z,57.30
2017-09-27T17:59:38.322Z,57.00
2017-09-27T18:02:07.521Z,56.70
2017-09-27T18:04:42.704Z,56.70
2017-09-27T18:07:11.311Z,56.50
2017-09-27T18:09:46.546Z,56.40
2017-09-27T18:12:35.218Z,56.50
2017-09-27T18:15:23.322Z,56.60
2017-09-27T18:17:55.193Z,57.30
2017-09-27T18:20:24.741Z,57.20
2017-09-27T18:22:54.048Z,57.40
2017-09-27T18:25:22.736Z,57.20
2017-09-27T18:27:51.043Z,57.40
2017-09-27T18:30:20.443Z,57.50
2017-09-27T18:32:50.743Z,57.80
2017-09-27T18:35:20.070Z,57.60
2017-09-27T18:37:49.369Z,57.40
2017-09-27T18:40:18.623Z,57.60
2017-09-27T18:42:47.868Z,57.80
2017-09-27T18:45:16.264Z,57.90
2017-09-27T18:47:44.571Z,58.10
2017-09-27T18:50:13.084Z,58.20
2017-09-27T18:52:42.623Z,58.30
2017-09-27T18:55:11.823Z,58.30
2017-09-27T18:57:41.391Z,58.60
2017-09-27T19:00:09.909Z,58.50
2017-09-27T19:02:39.154Z,58.50
2017-09-27T19:05:07.724Z,58.50
2017-09-27T19:07:36.255Z,58.60
2017-09-27T19:10:05.560Z,58.60
2017-09-27T19:12:34.676Z,58.30
2017-09-27T19:15:03.869Z,58.60
2017-09-27T19:17:34.060Z,58.50
2017-09-27T19:20:02.363Z,58.70
2017-09-27T19:22:31.474Z,58.80
2017-09-27T19:25:01.609Z,58.80
2017-09-27T19:27:29.975Z,58.80
2017-09-27T19:29:59.021Z,59.70
2017-09-27T19:32:27.486Z,59.00
2017-09-27T19:34:55.827Z,59.60
2017-09-27T19:37:25.467Z,59.20
2017-09-27T19:39:54.299Z,59.50
2017-09-27T19:42:22.955Z,59.40
2017-09-27T19:44:51.711Z,59.20
2017-09-27T19:47:20.151Z,59.70
2017-09-27T19:49:50.352Z,59.30
2017-09-27T19:52:19.749Z,59.30
2017-09-27T19:54:49.198Z,59.30
2017-09-27T19:57:17.552Z,59.40
2017-09-27T19:59:46.760Z,59.30
2017-09-27T20:02:15.075Z,59.30
2017-09-27T20:04:43.563Z,59.10
2017-09-27T20:07:11.967Z,59.10
2017-09-27T20:09:40.662Z,59.10
2017-09-27T20:12:10.110Z,59.40
2017-09-27T20:14:39.197Z,59.20
2017-09-27T20:17:08.612Z,59.20
2017-09-27T20:19:37.952Z,59.20
2017-09-27T20:22:06.357Z,59.20
2017-09-27T20:24:35.675Z,59.30
2017-09-27T20:27:05.020Z,59.20
2017-09-27T20:29:33.891Z,59.00
2017-09-27T20:32:02.339Z,59.60
2017-09-27T20:34:30.781Z,58.90
2017-09-27T20:36:59.125Z,59.20
2017-09-27T20:39:27.579Z,59.30
2017-09-27T20:41:57.225Z,59.40
2017-09-27T20:44:26.372Z,59.10
2017-09-27T20:46:54.680Z,59.20
2017-09-27T20:49:23.956Z,59.60
2017-09-27T20:51:52.237Z,59.60
2017-09-27T20:54:20.487Z,59.70
2017-09-27T20:56:48.929Z,59.40
2017-09-27T20:59:18.136Z,59.80
2017-09-27T21:01:46.601Z,59.50
2017-09-27T21:04:14.919Z,59.60
2017-09-27T21:06:44.268Z,59.90
2017-09-27T21:09:13.476Z,59.90
2017-09-27T21:11:41.847Z,59.80
2017-09-27T21:14:11.745Z,59.80
2017-09-27T21:16:40.936Z,59.70
2017-09-27T21:19:10.069Z,59.80
2017-09-27T21:21:39.458Z,59.80
2017-09-27T21:24:07.850Z,60.20
2017-09-27T21:26:37.323Z,60.00
2017-09-27T21:29:05.799Z,60.30
2017-09-27T21:31:34.896Z,60.00
2017-09-27T21:34:04.146Z,59.90
2017-09-27T21:36:32.505Z,60.10
2017-09-27T21:39:00.864Z,60.20
2017-09-27T21:41:29.330Z,60.30
2017-09-27T21:43:57.624Z,60.30
2017-09-27T21:46:25.986Z,60.20
2017-09-27T21:48:54.442Z,59.80
2017-09-27T21:51:25.309Z,59.90
2017-09-27T21:53:53.638Z,59.60
2017-09-27T21:56:22.883Z,59.50
2017-09-27T21:58:51.942Z,60.10
2017-09-27T22:01:21.155Z,59.40
2017-09-27T22:03:49.527Z,59.60
2017-09-27T22:06:17.991Z,59.50
2017-09-27T22:08:46.360Z,59.70
2017-09-27T22:11:14.805Z,59.50
2017-09-27T22:13:43.880Z,59.40
2017-09-27T22:16:13.862Z,59.50
2017-09-27T22:18:42.237Z,59.60
2017-09-27T22:21:12.355Z,59.50
2017-09-27T22:23:40.639Z,59.40
2017-09-27T22:26:09.903Z,59.80
2017-09-27T22:28:38.174Z,59.70
2017-09-27T22:31:07.242Z,59.50
2017-09-27T22:33:37.221Z,59.50
2017-09-27T22:36:05.540Z,59.60
2017-09-27T22:38:33.821Z,59.70
2017-09-27T22:41:02.201Z,59.70
2017-09-27T22:43:30.478Z,59.70
2017-09-27T22:46:00.501Z,59.90
2017-09-27T22:48:28.952Z,60.10
2017-09-27T22:50:57.251Z,59.90
2017-09-27T22:53:25.519Z,60.30
2017-09-27T22:55:54.594Z,60.00
2017-09-27T22:58:22.851Z,60.10
2017-09-27T23:00:51.180Z,60.20
2017-09-27T23:03:20.213Z,60.00
2017-09-27T23:05:48.488Z,60.10
2017-09-27T23:08:17.883Z,60.30
2017-09-27T23:10:46.287Z,60.40
2017-09-27T23:13:14.555Z,60.10
2017-09-27T23:15:43.733Z,60.60
2017-09-27T23:18:12.013Z,60.50
2017-09-27T23:20:41.315Z,60.50
2017-09-27T23:23:09.660Z,60.40
2017-09-27T23:25:38.703Z,60.50
2017-09-27T23:28:06.988Z,60.50
2017-09-27T23:30:35.300Z,60.30
2017-09-27T23:33:03.589Z,60.60
2017-09-27T23:35:32.643Z,60.30
2017-09-27T23:38:01.136Z,60.50
2017-09-27T23:40:29.428Z,60.50
2017-09-27T23:42:57.749Z,60.60
2017-09-27T23:45:27.019Z,60.60
2017-09-27T23:47:55.276Z,60.60
2017-09-27T23:50:23.562Z,60.60
2017-09-27T23:52:51.825Z,60.70
2017-09-27T23:55:20.238Z,60.80
2017-09-27T23:57:50.028Z,60.50
